sensor_id;sensor_type;location;lat;lon;timestamp;temperature;humidity
6174;DHT22;3120;48.796;9.796;2023-07-29T11:39:56;25.70;74.30
6174;DHT22;3120;48.796;9.796;2023-07-29T11:42:24;26.30;69.90
6174;DHT22;3120;48.796;9.796;2023-07-29T11:44:50;26.90;69.50
6174;DHT22;3120;48.796;9.796;2023-07-29T11:47:15;27.30;70.10
6174;DHT22;3120;48.796;9.796;2023-07-29T11:49:41;27.80;64.30
6174;DHT22;3120;48.796;9.796;2023-07-29T11:52:08;27.70;63.80
6174;DHT22;3120;48.796;9.796;2023-07-29T11:54:38;27.60;64.00
6174;DHT22;3120;48.796;9.796;2023-07-29T11:57:06;27.40;65.60
6174;DHT22;3120;48.796;9.796;2023-07-29T11:59:34;27.20;68.80
6174;DHT22;3120;48.796;9.796;2023-07-29T12:02:11;27.30;64.70
6174;DHT22;3120;48.796;9.796;2023-07-29T12:04:38;27.60;65.00
6174;DHT22;3120;48.796;9.796;2023-07-29T12:07:05;27.70;65.30
6174;DHT22;3120;48.796;9.796;2023-07-29T12:09:31;28.30;63.70
6174;DHT22;3120;48.796;9.796;2023-07-29T12:11:57;28.50;61.70
6174;DHT22;3120;48.796;9.796;2023-07-29T12:14:26;28.80;60.30
6174;DHT22;3120;48.796;9.796;2023-07-29T12:16:52;29.50;59.20
6174;DHT22;3120;48.796;9.796;2023-07-29T12:19:19;29.30;59.50
6174;DHT22;3120;48.796;9.796;2023-07-29T12:21:48;29.00;59.60
6174;DHT22;3120;48.796;9.796;2023-07-29T12:24:14;28.80;60.30
6174;DHT22;3120;48.796;9.796;2023-07-29T12:26:43;28.70;60.90
6174;DHT22;3120;48.796;9.796;2023-07-29T12:29:14;28.90;60.50
6174;DHT22;3120;48.796;9.796;2023-07-29T12:31:40;29.30;59.80
6174;DHT22;3120;48.796;9.796;2023-07-29T12:34:05;29.30;59.70
6174;DHT22;3120;48.796;9.796;2023-07-29T12:36:50;29.30;61.30
6174;DHT22;3120;48.796;9.796;2023-07-29T12:39:30;30.10;58.10
6174;DHT22;3120;48.796;9.796;2023-07-29T12:41:57;30.50;56.90
6174;DHT22;3120;48.796;9.796;2023-07-29T12:44:24;30.00;57.30
6174;DHT22;3120;48.796;9.796;2023-07-29T12:46:50;31.40;54.30
6174;DHT22;3120;48.796;9.796;2023-07-29T12:49:16;32.30;51.80
6174;DHT22;3120;48.796;9.796;2023-07-29T12:51:42;31.90;51.90
6174;DHT22;3120;48.796;9.796;2023-07-29T12:54:08;32.30;51.60
6174;DHT22;3120;48.796;9.796;2023-07-29T12:56:34;33.00;50.10
6174;DHT22;3120;48.796;9.796;2023-07-29T12:59:01;33.40;48.80
6174;DHT22;3120;48.796;9.796;2023-07-29T13:01:27;32.50;50.10
6174;DHT22;3120;48.796;9.796;2023-07-29T13:03:53;31.70;51.70
6174;DHT22;3120;48.796;9.796;2023-07-29T13:06:19;30.90;53.50
6174;DHT22;3120;48.796;9.796;2023-07-29T13:08:45;30.30;53.90
6174;DHT22;3120;48.796;9.796;2023-07-29T13:11:11;29.60;56.30
6174;DHT22;3120;48.796;9.796;2023-07-29T13:13:37;29.90;55.70
6174;DHT22;3120;48.796;9.796;2023-07-29T13:16:03;30.20;54.90
6174;DHT22;3120;48.796;9.796;2023-07-29T13:18:28;30.60;55.70
6174;DHT22;3120;48.796;9.796;2023-07-29T13:20:54;30.80;54.50
6174;DHT22;3120;48.796;9.796;2023-07-29T13:23:21;31.00;54.30
6174;DHT22;3120;48.796;9.796;2023-07-29T13:25:47;31.30;53.80
6174;DHT22;3120;48.796;9.796;2023-07-29T13:28:13;31.50;52.40
6174;DHT22;3120;48.796;9.796;2023-07-29T13:30:39;31.20;53.20
6174;DHT22;3120;48.796;9.796;2023-07-29T13:33:06;31.20;54.50
6174;DHT22;3120;48.796;9.796;2023-07-29T13:35:31;30.90;52.40
6174;DHT22;3120;48.796;9.796;2023-07-29T13:37:57;30.40;55.50
6174;DHT22;3120;48.796;9.796;2023-07-29T13:40:22;30.50;54.50
6174;DHT22;3120;48.796;9.796;2023-07-29T13:42:48;30.60;53.00
6174;DHT22;3120;48.796;9.796;2023-07-29T13:45:14;30.60;53.00
6174;DHT22;3120;48.796;9.796;2023-07-29T13:47:39;31.00;51.40
6174;DHT22;3120;48.796;9.796;2023-07-29T13:50:05;31.00;52.00
6174;DHT22;3120;48.796;9.796;2023-07-29T13:52:33;31.20;50.60
6174;DHT22;3120;48.796;9.796;2023-07-29T13:54:58;30.90;51.90
6174;DHT22;3120;48.796;9.796;2023-07-29T13:57:24;30.90;51.90
6174;DHT22;3120;48.796;9.796;2023-07-29T13:59:49;30.50;52.70
6174;DHT22;3120;48.796;9.796;2023-07-29T14:02:15;30.10;53.80
6174;DHT22;3120;48.796;9.796;2023-07-29T14:04:40;29.60;54.70
6174;DHT22;3120;48.796;9.796;2023-07-29T14:07:06;29.40;54.70
6174;DHT22;3120;48.796;9.796;2023-07-29T14:09:31;29.50;54.60
6174;DHT22;3120;48.796;9.796;2023-07-29T14:11:57;29.60;53.80
6174;DHT22;3120;48.796;9.796;2023-07-29T14:14:23;29.20;52.20
6174;DHT22;3120;48.796;9.796;2023-07-29T14:16:49;28.50;53.60
6174;DHT22;3120;48.796;9.796;2023-07-29T14:19:14;27.70;55.10
6174;DHT22;3120;48.796;9.796;2023-07-29T14:21:40;27.40;55.70
6174;DHT22;3120;48.796;9.796;2023-07-29T14:24:06;27.40;55.40
6174;DHT22;3120;48.796;9.796;2023-07-29T14:26:32;27.50;54.60
6174;DHT22;3120;48.796;9.796;2023-07-29T14:28:58;28.60;52.70
6174;DHT22;3120;48.796;9.796;2023-07-29T14:31:24;29.60;49.40
6174;DHT22;3120;48.796;9.796;2023-07-29T14:33:50;30.30;47.60
6174;DHT22;3120;48.796;9.796;2023-07-29T14:36:16;30.50;46.80
6174;DHT22;3120;48.796;9.796;2023-07-29T14:38:42;30.90;46.30
6174;DHT22;3120;48.796;9.796;2023-07-29T14:41:08;30.40;46.40
6174;DHT22;3120;48.796;9.796;2023-07-29T14:43:34;29.30;49.00
6174;DHT22;3120;48.796;9.796;2023-07-29T14:46:00;28.80;50.00
6174;DHT22;3120;48.796;9.796;2023-07-29T14:48:25;28.50;51.80
6174;DHT22;3120;48.796;9.796;2023-07-29T14:50:51;28.50;51.30
6174;DHT22;3120;48.796;9.796;2023-07-29T14:53:17;28.70;51.50
6174;DHT22;3120;48.796;9.796;2023-07-29T14:55:42;28.80;50.30
6174;DHT22;3120;48.796;9.796;2023-07-29T14:58:08;28.80;50.20
6174;DHT22;3120;48.796;9.796;2023-07-29T15:00:33;29.10;50.50
6174;DHT22;3120;48.796;9.796;2023-07-29T15:02:59;29.50;49.90
6174;DHT22;3120;48.796;9.796;2023-07-29T15:05:25;29.40;49.00
6174;DHT22;3120;48.796;9.796;2023-07-29T15:07:50;29.10;50.20
6174;DHT22;3120;48.796;9.796;2023-07-29T15:10:16;29.10;49.90
6174;DHT22;3120;48.796;9.796;2023-07-29T15:12:43;28.80;49.60
6174;DHT22;3120;48.796;9.796;2023-07-29T15:15:09;28.30;51.30
6174;DHT22;3120;48.796;9.796;2023-07-29T15:17:35;28.30;51.60
6174;DHT22;3120;48.796;9.796;2023-07-29T15:20:02;28.30;52.00
6174;DHT22;3120;48.796;9.796;2023-07-29T15:22:27;28.00;52.70
6174;DHT22;3120;48.796;9.796;2023-07-29T15:24:53;27.70;51.70
6174;DHT22;3120;48.796;9.796;2023-07-29T15:27:18;27.30;52.90
6174;DHT22;3120;48.796;9.796;2023-07-29T15:29:44;27.10;52.80
6174;DHT22;3120;48.796;9.796;2023-07-29T15:32:09;27.00;53.00
6174;DHT22;3120;48.796;9.796;2023-07-29T15:34:35;26.90;53.70
6174;DHT22;3120;48.796;9.796;2023-07-29T15:37:02;26.70;54.80
6174;DHT22;3120;48.796;9.796;2023-07-29T15:39:28;26.80;55.70
6174;DHT22;3120;48.796;9.796;2023-07-29T15:41:53;27.10;55.50
6174;DHT22;3120;48.796;9.796;2023-07-29T15:44:19;27.50;54.70
6174;DHT22;3120;48.796;9.796;2023-07-29T15:46:44;28.20;53.60
6174;DHT22;3120;48.796;9.796;2023-07-29T15:49:14;28.70;52.30
6174;DHT22;3120;48.796;9.796;2023-07-29T15:51:43;28.70;51.80
6174;DHT22;3120;48.796;9.796;2023-07-29T15:54:08;28.70;52.70
6174;DHT22;3120;48.796;9.796;2023-07-29T15:56:34;28.80;49.80
6174;DHT22;3120;48.796;9.796;2023-07-29T15:59:02;28.80;49.50
6174;DHT22;3120;48.796;9.796;2023-07-29T16:01:31;28.80;49.20
6174;DHT22;3120;48.796;9.796;2023-07-29T16:03:56;28.90;48.80
6174;DHT22;3120;48.796;9.796;2023-07-29T16:06:24;29.70;48.20
6174;DHT22;3120;48.796;9.796;2023-07-29T16:08:50;30.90;45.90
6174;DHT22;3120;48.796;9.796;2023-07-29T16:11:16;31.60;43.30
6174;DHT22;3120;48.796;9.796;2023-07-29T16:13:41;31.60;43.30
6174;DHT22;3120;48.796;9.796;2023-07-29T16:16:07;31.60;42.70
6174;DHT22;3120;48.796;9.796;2023-07-29T16:18:32;31.20;44.00
6174;DHT22;3120;48.796;9.796;2023-07-29T16:20:58;30.60;44.60
6174;DHT22;3120;48.796;9.796;2023-07-29T16:23:30;29.40;46.90
6174;DHT22;3120;48.796;9.796;2023-07-29T16:25:57;28.90;48.00
6174;DHT22;3120;48.796;9.796;2023-07-29T16:28:22;28.90;48.40
6174;DHT22;3120;48.796;9.796;2023-07-29T16:30:48;28.70;49.10
6174;DHT22;3120;48.796;9.796;2023-07-29T16:33:14;28.50;49.10
6174;DHT22;3120;48.796;9.796;2023-07-29T16:35:41;29.40;47.30
6174;DHT22;3120;48.796;9.796;2023-07-29T16:38:06;30.50;45.60
6174;DHT22;3120;48.796;9.796;2023-07-29T16:40:32;31.00;43.90
6174;DHT22;3120;48.796;9.796;2023-07-29T16:42:58;30.50;45.20
6174;DHT22;3120;48.796;9.796;2023-07-29T16:45:24;29.50;46.80
6174;DHT22;3120;48.796;9.796;2023-07-29T16:47:50;29.00;48.20
6174;DHT22;3120;48.796;9.796;2023-07-29T16:50:16;28.80;48.40
6174;DHT22;3120;48.796;9.796;2023-07-29T16:52:42;29.90;46.40
6174;DHT22;3120;48.796;9.796;2023-07-29T16:55:08;30.60;44.90
6174;DHT22;3120;48.796;9.796;2023-07-29T16:57:34;30.40;45.20
6174;DHT22;3120;48.796;9.796;2023-07-29T17:00:00;30.30;45.10
6174;DHT22;3120;48.796;9.796;2023-07-29T17:02:25;29.60;46.40
6174;DHT22;3120;48.796;9.796;2023-07-29T17:04:51;28.70;49.30
6174;DHT22;3120;48.796;9.796;2023-07-29T17:07:16;28.20;49.80
6174;DHT22;3120;48.796;9.796;2023-07-29T17:09:43;28.00;50.40
6174;DHT22;3120;48.796;9.796;2023-07-29T17:12:12;27.60;51.70
6174;DHT22;3120;48.796;9.796;2023-07-29T17:14:37;27.70;51.60
6174;DHT22;3120;48.796;9.796;2023-07-29T17:17:03;28.00;51.20
6174;DHT22;3120;48.796;9.796;2023-07-29T17:19:29;27.90;51.70
6174;DHT22;3120;48.796;9.796;2023-07-29T17:21:55;27.40;52.20
6174;DHT22;3120;48.796;9.796;2023-07-29T17:24:21;27.10;52.90
6174;DHT22;3120;48.796;9.796;2023-07-29T17:26:46;27.20;53.00
6174;DHT22;3120;48.796;9.796;2023-07-29T17:29:12;27.80;51.60
6174;DHT22;3120;48.796;9.796;2023-07-29T17:31:37;27.80;51.70
6174;DHT22;3120;48.796;9.796;2023-07-29T17:34:03;27.40;52.80
6174;DHT22;3120;48.796;9.796;2023-07-29T17:36:29;27.20;52.80
